sensor_id;sensor_type;location;lat;lon;timestamp;pressure;altitude;pressure_sealevel;temperature;humidity
21877;BME280;11103;43.788;23.710;2023-02-03T00:01:40;147629.47;;;4.99;93.75
21877;BME280;11103;43.788;23.710;2023-02-03T00:04:06;147637.09;;;5.02;93.40
21877;BME280;11103;43.788;23.710;2023-02-03T00:06:31;147632.03;;;5.00;93.59
21877;BME280;11103;43.788;23.710;2023-02-03T00:08:57;147644.75;;;5.05;93.16
21877;BME280;11103;43.788;23.710;2023-02-03T00:11:23;147640.91;;;5.03;93.01
21877;BME280;11103;43.788;23.710;2023-02-03T00:13:49;147638.38;;;5.02;92.98
21877;BME280;11103;43.788;23.710;2023-02-03T00:16:15;147629.47;;;4.99;93.11
21877;BME280;11103;43.788;23.710;2023-02-03T00:18:40;147607.81;;;4.90;93.01
21877;BME280;11103;43.788;23.710;2023-02-03T00:21:06;147609.09;;;4.91;93.43
21877;BME280;11103;43.788;23.710;2023-02-03T00:23:31;147612.88;;;4.92;93.29
21877;BME280;11103;43.788;23.710;2023-02-03T00:26:05;147605.28;;;4.89;93.69
21877;BME280;11103;43.788;23.710;2023-02-03T00:28:30;147607.81;;;4.90;93.45
21877;BME280;11103;43.788;23.710;2023-02-03T00:30:56;147600.16;;;4.87;94.12
21877;BME280;11103;43.788;23.710;2023-02-03T00:33:21;147612.88;;;4.92;93.60
21877;BME280;11103;43.788;23.710;2023-02-03T00:35:46;147598.88;;;4.87;94.36
21877;BME280;11103;43.788;23.710;2023-02-03T00:38:12;147591.28;;;4.84;94.61
21877;BME280;11103;43.788;23.710;2023-02-03T00:40:37;147588.72;;;4.82;94.77
21877;BME280;11103;43.788;23.710;2023-02-03T00:43:03;147586.16;;;4.81;94.97
21877;BME280;11103;43.788;23.710;2023-02-03T00:45:28;147586.16;;;4.81;95.21
21877;BME280;11103;43.788;23.710;2023-02-03T00:47:54;147584.88;;;4.81;95.40
21877;BME280;11103;43.788;23.710;2023-02-03T00:50:19;147591.28;;;4.84;95.13
21877;BME280;11103;43.788;23.710;2023-02-03T00:52:44;147593.78;;;4.85;95.15
21877;BME280;11103;43.788;23.710;2023-02-03T00:55:10;147587.44;;;4.82;95.41
21877;BME280;11103;43.788;23.710;2023-02-03T00:57:35;147602.72;;;4.88;94.95
21877;BME280;11103;43.788;23.710;2023-02-03T01:00:01;147590.00;;;4.83;94.97
21877;BME280;11103;43.788;23.710;2023-02-03T01:02:26;147609.09;;;4.91;94.54
21877;BME280;11103;43.788;23.710;2023-02-03T01:04:51;147620.53;;;4.95;94.44
21877;BME280;11103;43.788;23.710;2023-02-03T01:07:17;147630.75;;;4.99;94.54
21877;BME280;11103;43.788;23.710;2023-02-03T01:09:42;147615.44;;;4.93;95.80
21877;BME280;11103;43.788;23.710;2023-02-03T01:12:08;147628.19;;;4.98;95.28
21877;BME280;11103;43.788;23.710;2023-02-03T01:14:33;147623.09;;;4.96;95.64
21877;BME280;11103;43.788;23.710;2023-02-03T01:16:59;147621.81;;;4.96;96.19
21877;BME280;11103;43.788;23.710;2023-02-03T01:19:25;147628.19;;;4.98;96.55
21877;BME280;11103;43.788;23.710;2023-02-03T01:21:50;147632.03;;;5.00;96.90
21877;BME280;11103;43.788;23.710;2023-02-03T01:24:16;147620.53;;;4.95;97.41
21877;BME280;11103;43.788;23.710;2023-02-03T01:26:41;147609.09;;;4.91;98.18
21877;BME280;11103;43.788;23.710;2023-02-03T01:29:08;147601.44;;;4.88;98.86
21877;BME280;11103;43.788;23.710;2023-02-03T01:31:36;147601.44;;;4.88;98.74
21877;BME280;11103;43.788;23.710;2023-02-03T01:34:04;147606.53;;;4.90;98.58
21877;BME280;11103;43.788;23.710;2023-02-03T01:36:32;147626.88;;;4.98;98.34
21877;BME280;11103;43.788;23.710;2023-02-03T01:38:57;147621.81;;;4.96;98.78
21877;BME280;11103;43.788;23.710;2023-02-03T01:41:28;147612.88;;;4.92;98.98
21877;BME280;11103;43.788;23.710;2023-02-03T01:43:56;147611.66;;;4.92;99.18
21877;BME280;11103;43.788;23.710;2023-02-03T01:46:34;147611.66;;;4.92;99.75
21877;BME280;11103;43.788;23.710;2023-02-03T01:49:04;147612.88;;;4.92;99.44
21877;BME280;11103;43.788;23.710;2023-02-03T01:51:32;147587.44;;;4.82;100.00
21877;BME280;11103;43.788;23.710;2023-02-03T01:53:58;147587.44;;;4.82;100.00
21877;BME280;11103;43.788;23.710;2023-02-03T01:56:27;147573.41;;;4.76;100.00
21877;BME280;11103;43.788;23.710;2023-02-03T01:58:54;147596.34;;;4.86;100.00
21877;BME280;11103;43.788;23.710;2023-02-03T02:01:20;147604.00;;;4.89;99.77
21877;BME280;11103;43.788;23.710;2023-02-03T02:03:49;147619.25;;;4.95;99.90
21877;BME280;11103;43.788;23.710;2023-02-03T02:06:17;147639.66;;;5.03;99.11
21877;BME280;11103;43.788;23.710;2023-02-03T02:08:45;147632.03;;;5.00;99.58
21877;BME280;11103;43.788;23.710;2023-02-03T02:11:12;147647.25;;;5.06;98.66
21877;BME280;11103;43.788;23.710;2023-02-03T02:13:38;147648.56;;;5.06;97.91
21877;BME280;11103;43.788;23.710;2023-02-03T02:22:07;147642.19;;;5.04;98.83
21877;BME280;11103;43.788;23.710;2023-02-03T02:41:05;147629.47;;;4.99;99.31
21877;BME280;11103;43.788;23.710;2023-02-03T02:43:50;147626.88;;;4.98;99.93
21877;BME280;11103;43.788;23.710;2023-02-03T02:46:29;147630.75;;;4.99;99.78
21877;BME280;11103;43.788;23.710;2023-02-03T02:49:38;147628.19;;;4.98;99.66
21877;BME280;11103;43.788;23.710;2023-02-03T02:52:07;147634.53;;;5.01;99.58
21877;BME280;11103;43.788;23.710;2023-02-03T02:54:37;147652.41;;;5.08;98.73
21877;BME280;11103;43.788;23.710;2023-02-03T02:57:05;147647.25;;;5.06;98.85
21877;BME280;11103;43.788;23.710;2023-02-03T02:59:34;147648.56;;;5.06;98.99
21877;BME280;11103;43.788;23.710;2023-02-03T03:01:59;147670.22;;;5.15;97.43
21877;BME280;11103;43.788;23.710;2023-02-03T03:04:27;147675.28;;;5.17;97.92
21877;BME280;11103;43.788;23.710;2023-02-03T03:06:56;147670.22;;;5.15;97.62
21877;BME280;11103;43.788;23.710;2023-02-03T03:09:27;147644.75;;;5.05;98.45
21877;BME280;11103;43.788;23.710;2023-02-03T03:12:07;147662.56;;;5.12;98.42
21877;BME280;11103;43.788;23.710;2023-02-03T03:14:35;147625.66;;;4.97;98.36
21877;BME280;11103;43.788;23.710;2023-02-03T03:17:06;147665.13;;;5.13;98.63
21877;BME280;11103;43.788;23.710;2023-02-03T03:19:39;147684.22;;;5.20;98.67
21877;BME280;11103;43.788;23.710;2023-02-03T03:22:09;147670.22;;;5.15;99.45
21877;BME280;11103;43.788;23.710;2023-02-03T03:24:46;147667.63;;;5.14;99.58
21877;BME280;11103;43.788;23.710;2023-02-03T03:32:28;147634.53;;;5.01;100.00
21877;BME280;11103;43.788;23.710;2023-02-03T03:34:57;147614.16;;;4.93;100.00
21877;BME280;11103;43.788;23.710;2023-02-03T03:40:24;147619.25;;;4.95;100.00
21877;BME280;11103;43.788;23.710;2023-02-03T03:43:00;147616.72;;;4.94;100.00
21877;BME280;11103;43.788;23.710;2023-02-03T03:51:18;147606.53;;;4.90;100.00
21877;BME280;11103;43.788;23.710;2023-02-03T03:53:46;147592.50;;;4.84;100.00
21877;BME280;11103;43.788;23.710;2023-02-03T03:56:18;147604.00;;;4.89;100.00
21877;BME280;11103;43.788;23.710;2023-02-03T03:58:47;147606.53;;;4.90;100.00
21877;BME280;11103;43.788;23.710;2023-02-03T04:01:15;147612.88;;;4.92;100.00
21877;BME280;11103;43.788;23.710;2023-02-03T04:03:47;147601.44;;;4.88;100.00
21877;BME280;11103;43.788;23.710;2023-02-03T04:06:14;147581.06;;;4.79;100.00
21877;BME280;11103;43.788;23.710;2023-02-03T04:08:39;147593.78;;;4.85;100.00
21877;BME280;11103;43.788;23.710;2023-02-03T04:11:05;147609.09;;;4.91;100.00
21877;BME280;11103;43.788;23.710;2023-02-03T04:13:31;147591.28;;;4.84;100.00
21877;BME280;11103;43.788;23.710;2023-02-03T04:15:56;147581.06;;;4.79;100.00
21877;BME280;11103;43.788;23.710;2023-02-03T04:18:22;147583.63;;;4.80;100.00
21877;BME280;11103;43.788;23.710;2023-02-03T04:20:47;147597.63;;;4.86;100.00
21877;BME280;11103;43.788;23.710;2023-02-03T04:23:12;147586.16;;;4.81;100.00
21877;BME280;11103;43.788;23.710;2023-02-03T04:25:38;147568.34;;;4.74;100.00
21877;BME280;11103;43.788;23.710;2023-02-03T04:28:03;147572.13;;;4.76;100.00
21877;BME280;11103;43.788;23.710;2023-02-03T04:30:30;147549.25;;;4.67;100.00
21877;BME280;11103;43.788;23.710;2023-02-03T04:32:55;147540.34;;;4.63;100.00
21877;BME280;11103;43.788;23.710;2023-02-03T04:35:21;147522.53;;;4.56;100.00
21877;BME280;11103;43.788;23.710;2023-02-03T04:37:47;147522.53;;;4.56;100.00
21877;BME280;11103;43.788;23.710;2023-02-03T04:40:12;147504.69;;;4.49;100.00
21877;BME280;11103;43.788;23.710;2023-02-03T04:42:39;147497.03;;;4.46;100.00
21877;BME280;11103;43.788;23.710;2023-02-03T04:45:06;147508.53;;;4.51;100.00
21877;BME280;11103;43.788;23.710;2023-02-03T04:47:32;147494.53;;;4.45;100.00
21877;BME280;11103;43.788;23.710;2023-02-03T04:49:57;147471.59;;;4.36;100.00
21877;BME280;11103;43.788;23.710;2023-02-03T04:52:23;147465.25;;;4.34;100.00
21877;BME280;11103;43.788;23.710;2023-02-03T04:54:48;147475.41;;;4.38;100.00
21877;BME280;11103;43.788;23.710;2023-02-03T04:57:14;147474.16;;;4.37;100.00
21877;BME280;11103;43.788;23.710;2023-02-03T04:59:39;147465.25;;;4.34;100.00
21877;BME280;11103;43.788;23.710;2023-02-03T05:02:05;147462.69;;;4.33;100.00
21877;BME280;11103;43.788;23.710;2023-02-03T05:04:31;147461.41;;;4.32;100.00
21877;BME280;11103;43.788;23.710;2023-02-03T05:06:56;147461.41;;;4.32;100.00
21877;BME280;11103;43.788;23.710;2023-02-03T05:09:23;147451.25;;;4.28;100.00
21877;BME280;11103;43.788;23.710;2023-02-03T05:11:48;147438.53;;;4.23;100.00
21877;BME280;11103;43.788;23.710;2023-02-03T05:14:14;147438.53;;;4.23;100.00
21877;BME280;11103;43.788;23.710;2023-02-03T05:16:39;147452.53;;;4.29;100.00
21877;BME280;11103;43.788;23.710;2023-02-03T05:19:05;147443.59;;;4.25;100.00
21877;BME280;11103;43.788;23.710;2023-02-03T05:21:30;147433.44;;;4.21;100.00
21877;BME280;11103;43.788;23.710;2023-02-03T05:23:56;147446.16;;;4.26;100.00
21877;BME280;11103;43.788;23.710;2023-02-03T05:26:21;147444.88;;;4.26;100.00
21877;BME280;11103;43.788;23.710;2023-02-03T05:28:47;147448.69;;;4.27;100.00
21877;BME280;11103;43.788;23.710;2023-02-03T05:31:12;147456.31;;;4.30;100.00
21877;BME280;11103;43.788;23.710;2023-02-03T05:33:37;147458.88;;;4.31;100.00
21877;BME280;11103;43.788;23.710;2023-02-03T05:36:03;147460.16;;;4.32;100.00
21877;BME280;11103;43.788;23.710;2023-02-03T05:38:29;147453.81;;;4.29;100.00
21877;BME280;11103;43.788;23.710;2023-02-03T05:40:54;147441.03;;;4.24;100.00
21877;BME280;11103;43.788;23.710;2023-02-03T05:43:38;147453.81;;;4.29;100.00
21877;BME280;11103;43.788;23.710;2023-02-03T05:46:05;147448.69;;;4.27;100.00
21877;BME280;11103;43.788;23.710;2023-02-03T05:48:31;147432.16;;;4.20;100.00
21877;BME280;11103;43.788;23.710;2023-02-03T05:50:57;147439.81;;;4.24;100.00
21877;BME280;11103;43.788;23.710;2023-02-03T05:53:23;147438.53;;;4.23;100.00
21877;BME280;11103;43.788;23.710;2023-02-03T05:55:48;147451.25;;;4.28;100.00
21877;BME280;11103;43.788;23.710;2023-02-03T05:58:14;147465.25;;;4.34;100.00
21877;BME280;11103;43.788;23.710;2023-02-03T06:00:39;147443.59;;;4.25;100.00
21877;BME280;11103;43.788;23.710;2023-02-03T06:03:05;147461.41;;;4.32;100.00
21877;BME280;11103;43.788;23.710;2023-02-03T06:05:32;147493.25;;;4.45;100.00
21877;BME280;11103;43.788;23.710;2023-02-03T06:07:58;147540.34;;;4.63;100.00
21877;BME280;11103;43.788;23.710;2023-02-03T06:10:25;147586.16;;;4.81;100.00
21877;BME280;11103;43.788;23.710;2023-02-03T06:12:51;147591.28;;;4.84;100.00
21877;BME280;11103;43.788;23.710;2023-02-03T06:15:17;147591.28;;;4.84;100.00
21877;BME280;11103;43.788;23.710;2023-02-03T06:17:44;147583.63;;;4.80;100.00
21877;BME280;11103;43.788;23.710;2023-02-03T06:20:12;147570.91;;;4.75;100.00
21877;BME280;11103;43.788;23.710;2023-02-03T06:22:37;147568.34;;;4.74;100.00
21877;BME280;11103;43.788;23.710;2023-02-03T06:25:03;147586.16;;;4.81;100.00
21877;BME280;11103;43.788;23.710;2023-02-03T06:27:29;147626.88;;;4.98;100.00
21877;BME280;11103;43.788;23.710;2023-02-03T06:29:54;147639.66;;;5.03;99.82
21877;BME280;11103;43.788;23.710;2023-02-03T06:32:20;147639.66;;;5.03;99.74
21877;BME280;11103;43.788;23.710;2023-02-03T06:34:45;147660.03;;;5.11;100.00
21877;BME280;11103;43.788;23.710;2023-02-03T06:37:11;147649.84;;;5.07;100.00
21877;BME280;11103;43.788;23.710;2023-02-03T06:39:36;147690.56;;;5.23;99.29
21877;BME280;11103;43.788;23.710;2023-02-03T06:42:02;147695.66;;;5.25;97.94
21877;BME280;11103;43.788;23.710;2023-02-03T06:44:27;147696.94;;;5.25;97.93
21877;BME280;11103;43.788;23.710;2023-02-03T06:46:52;147703.31;;;5.28;97.20
21877;BME280;11103;43.788;23.710;2023-02-03T06:49:18;147726.25;;;5.37;96.99
21877;BME280;11103;43.788;23.710;2023-02-03T06:51:44;147746.63;;;5.45;95.96
21877;BME280;11103;43.788;23.710;2023-02-03T06:54:11;147754.28;;;5.48;96.38
21877;BME280;11103;43.788;23.710;2023-02-03T06:56:37;147782.31;;;5.59;95.20
21877;BME280;11103;43.788;23.710;2023-02-03T06:59:03;147821.81;;;5.75;94.03
21877;BME280;11103;43.788;23.710;2023-02-03T07:01:29;147848.63;;;5.85;92.77
21877;BME280;11103;43.788;23.710;2023-02-03T07:03:55;147869.00;;;5.93;91.05
21877;BME280;11103;43.788;23.710;2023-02-03T07:06:23;147848.63;;;5.85;91.17
21877;BME280;11103;43.788;23.710;2023-02-03T07:08:57;147849.91;;;5.86;90.69
21877;BME280;11103;43.788;23.710;2023-02-03T07:11:23;147858.84;;;5.89;90.51
21877;BME280;11103;43.788;23.710;2023-02-03T07:13:50;147826.91;;;5.77;90.63
21877;BME280;11103;43.788;23.710;2023-02-03T07:16:16;147885.59;;;6.00;89.69
21877;BME280;11103;43.788;23.710;2023-02-03T07:18:41;147858.84;;;5.89;88.28
21877;BME280;11103;43.788;23.710;2023-02-03T07:21:07;147912.34;;;6.11;88.24
21877;BME280;11103;43.788;23.710;2023-02-03T07:23:32;147930.19;;;6.18;87.18
21877;BME280;11103;43.788;23.710;2023-02-03T07:25:59;147965.88;;;6.32;87.38
21877;BME280;11103;43.788;23.710;2023-02-03T07:28:24;147969.69;;;6.33;86.02
21877;BME280;11103;43.788;23.710;2023-02-03T07:30:49;147985.00;;;6.39;87.12
21877;BME280;11103;43.788;23.710;2023-02-03T07:33:15;147974.81;;;6.35;85.98
21877;BME280;11103;43.788;23.710;2023-02-03T07:35:40;147978.63;;;6.37;84.83
21877;BME280;11103;43.788;23.710;2023-02-03T07:38:06;148001.59;;;6.46;84.12
21877;BME280;11103;43.788;23.710;2023-02-03T07:40:31;147991.38;;;6.42;83.99
21877;BME280;11103;43.788;23.710;2023-02-03T07:42:56;148019.44;;;6.53;83.10
21877;BME280;11103;43.788;23.710;2023-02-03T07:45:24;148006.69;;;6.48;82.36
21877;BME280;11103;43.788;23.710;2023-02-03T07:47:50;148032.19;;;6.58;82.22
21877;BME280;11103;43.788;23.710;2023-02-03T07:50:15;148057.72;;;6.68;82.04
21877;BME280;11103;43.788;23.710;2023-02-03T07:52:41;148060.25;;;6.69;82.91
21877;BME280;11103;43.788;23.710;2023-02-03T07:55:06;148062.81;;;6.70;82.89
21877;BME280;11103;43.788;23.710;2023-02-03T07:57:32;148071.75;;;6.74;82.79
21877;BME280;11103;43.788;23.710;2023-02-03T07:59:58;148053.88;;;6.67;83.50
21877;BME280;11103;43.788;23.710;2023-02-03T08:02:23;148101.06;;;6.85;83.52
21877;BME280;11103;43.788;23.710;2023-02-03T08:04:48;148124.03;;;6.94;83.90
21877;BME280;11103;43.788;23.710;2023-02-03T08:07:14;148144.44;;;7.02;83.24
21877;BME280;11103;43.788;23.710;2023-02-03T08:09:39;148159.75;;;7.08;83.27
21877;BME280;11103;43.788;23.710;2023-02-03T08:12:05;148141.88;;;7.01;81.02
21877;BME280;11103;43.788;23.710;2023-02-03T08:14:30;148164.84;;;7.10;81.27
21877;BME280;11103;43.788;23.710;2023-02-03T08:16:56;148182.69;;;7.17;80.25
21877;BME280;11103;43.788;23.710;2023-02-03T08:19:21;148196.72;;;7.23;78.66
21877;BME280;11103;43.788;23.710;2023-02-03T08:21:47;148198.03;;;7.24;78.43
21877;BME280;11103;43.788;23.710;2023-02-03T08:24:12;148178.88;;;7.16;77.73
21877;BME280;11103;43.788;23.710;2023-02-03T08:26:38;148198.03;;;7.24;78.19
21877;BME280;11103;43.788;23.710;2023-02-03T08:29:03;148212.06;;;7.29;78.25
21877;BME280;11103;43.788;23.710;2023-02-03T08:31:29;148221.00;;;7.33;78.53
21877;BME280;11103;43.788;23.710;2023-02-03T08:33:55;148238.84;;;7.40;78.04
21877;BME280;11103;43.788;23.710;2023-02-03T08:36:20;148286.06;;;7.58;75.14
21877;BME280;11103;43.788;23.710;2023-02-03T08:38:46;148261.84;;;7.49;75.14
21877;BME280;11103;43.788;23.710;2023-02-03T08:41:14;148270.78;;;7.52;74.87
21877;BME280;11103;43.788;23.710;2023-02-03T08:43:40;148286.06;;;7.58;74.14
21877;BME280;11103;43.788;23.710;2023-02-03T08:46:07;148292.50;;;7.61;73.24
21877;BME280;11103;43.788;23.710;2023-02-03T08:48:33;148301.41;;;7.64;73.90
21877;BME280;11103;43.788;23.710;2023-02-03T08:50:59;148321.81;;;7.72;73.73
21877;BME280;11103;43.788;23.710;2023-02-03T08:53:25;148344.81;;;7.82;72.66
21877;BME280;11103;43.788;23.710;2023-02-03T08:55:51;148370.34;;;7.92;73.15
21877;BME280;11103;43.788;23.710;2023-02-03T08:58:17;148379.28;;;7.95;70.22
21877;BME280;11103;43.788;23.710;2023-02-03T09:00:43;148381.88;;;7.96;69.77
21877;BME280;11103;43.788;23.710;2023-02-03T09:03:09;148358.88;;;7.87;69.90
21877;BME280;11103;43.788;23.710;2023-02-03T09:05:35;148374.19;;;7.93;70.96
21877;BME280;11103;43.788;23.710;2023-02-03T09:08:01;148376.72;;;7.94;70.13
21877;BME280;11103;43.788;23.710;2023-02-03T09:10:27;148409.91;;;8.07;68.71
21877;BME280;11103;43.788;23.710;2023-02-03T09:12:52;148406.09;;;8.06;68.09
21877;BME280;11103;43.788;23.710;2023-02-03T09:15:18;148389.47;;;7.99;69.48
21877;BME280;11103;43.788;23.710;2023-02-03T09:17:43;148402.28;;;8.04;69.88
21877;BME280;11103;43.788;23.710;2023-02-03T09:20:09;148422.72;;;8.12;69.47
21877;BME280;11103;43.788;23.710;2023-02-03T09:22:37;148444.38;;;8.21;68.72
21877;BME280;11103;43.788;23.710;2023-02-03T09:25:03;148429.09;;;8.15;69.43
21877;BME280;11103;43.788;23.710;2023-02-03T09:27:29;148464.88;;;8.29;69.11
21877;BME280;11103;43.788;23.710;2023-02-03T09:29:54;148496.84;;;8.42;69.57
21877;BME280;11103;43.788;23.710;2023-02-03T09:32:19;148501.94;;;8.44;69.75
21877;BME280;11103;43.788;23.710;2023-02-03T09:34:45;148494.28;;;8.41;68.18
21877;BME280;11103;43.788;23.710;2023-02-03T09:37:10;148499.38;;;8.43;67.75
21877;BME280;11103;43.788;23.710;2023-02-03T09:39:35;148512.19;;;8.48;67.96
21877;BME280;11103;43.788;23.710;2023-02-03T09:42:18;148514.72;;;8.49;69.93
21877;BME280;11103;43.788;23.710;2023-02-03T09:45:00;148512.19;;;8.48;67.85
21877;BME280;11103;43.788;23.710;2023-02-03T09:47:39;148507.03;;;8.46;67.95
21877;BME280;11103;43.788;23.710;2023-02-03T09:50:11;148526.25;;;8.53;66.88
21877;BME280;11103;43.788;23.710;2023-02-03T09:52:39;148531.34;;;8.55;66.91
21877;BME280;11103;43.788;23.710;2023-02-03T09:58:03;148495.56;;;8.41;64.10
21877;BME280;11103;43.788;23.710;2023-02-03T10:00:34;148500.66;;;8.43;64.17
21877;BME280;11103;43.788;23.710;2023-02-03T10:11:15;148430.34;;;8.15;61.94
21877;BME280;11103;43.788;23.710;2023-02-03T10:19:25;148457.22;;;8.26;60.22
21877;BME280;11103;43.788;23.710;2023-02-03T10:21:56;148461.06;;;8.27;60.35
21877;BME280;11103;43.788;23.710;2023-02-03T10:26:58;148533.84;;;8.56;61.39
21877;BME280;11103;43.788;23.710;2023-02-03T10:29:34;148563.25;;;8.68;62.44
21877;BME280;11103;43.788;23.710;2023-02-03T10:32:01;148568.34;;;8.70;61.99
21877;BME280;11103;43.788;23.710;2023-02-03T10:34:27;148523.66;;;8.52;60.85
21877;BME280;11103;43.788;23.710;2023-02-03T10:39:49;148533.84;;;8.56;60.68
21877;BME280;11103;43.788;23.710;2023-02-03T10:42:15;148501.94;;;8.44;59.90
21877;BME280;11103;43.788;23.710;2023-02-03T10:44:46;148496.84;;;8.42;61.13
21877;BME280;11103;43.788;23.710;2023-02-03T10:49:56;148570.94;;;8.71;63.23
21877;BME280;11103;43.788;23.710;2023-02-03T10:54:54;148593.94;;;8.80;60.73
21877;BME280;11103;43.788;23.710;2023-02-03T10:57:20;148578.59;;;8.74;61.06
21877;BME280;11103;43.788;23.710;2023-02-03T10:59:47;148616.91;;;8.89;61.70
21877;BME280;11103;43.788;23.710;2023-02-03T11:02:27;148627.16;;;8.93;60.51
21877;BME280;11103;43.788;23.710;2023-02-03T11:07:40;148652.72;;;9.03;59.15
21877;BME280;11103;43.788;23.710;2023-02-03T11:10:30;148675.75;;;9.12;59.44
21877;BME280;11103;43.788;23.710;2023-02-03T11:16:12;148698.75;;;9.21;58.09
21877;BME280;11103;43.788;23.710;2023-02-03T11:21:40;148627.16;;;8.93;59.55
21877;BME280;11103;43.788;23.710;2023-02-03T11:24:36;148673.16;;;9.11;59.11
21877;BME280;11103;43.788;23.710;2023-02-03T11:27:05;148665.47;;;9.08;58.18
21877;BME280;11103;43.788;23.710;2023-02-03T11:29:35;148691.09;;;9.18;56.93
21877;BME280;11103;43.788;23.710;2023-02-03T11:32:32;148661.66;;;9.07;56.96
21877;BME280;11103;43.788;23.710;2023-02-03T11:35:12;148703.84;;;9.23;55.83
21877;BME280;11103;43.788;23.710;2023-02-03T11:37:41;148714.06;;;9.27;56.23
21877;BME280;11103;43.788;23.710;2023-02-03T11:42:34;148703.84;;;9.23;57.34
21877;BME280;11103;43.788;23.710;2023-02-03T11:45:25;148701.28;;;9.22;57.65
21877;BME280;11103;43.788;23.710;2023-02-03T12:12:54;148491.75;;;8.40;57.93
21877;BME280;11103;43.788;23.710;2023-02-03T12:15:47;148492.97;;;8.40;57.33
21877;BME280;11103;43.788;23.710;2023-02-03T12:21:17;148435.50;;;8.17;57.01
21877;BME280;11103;43.788;23.710;2023-02-03T12:29:40;148376.72;;;7.94;58.99
21877;BME280;11103;43.788;23.710;2023-02-03T12:35:01;148362.69;;;7.89;59.33
21877;BME280;11103;43.788;23.710;2023-02-03T12:37:33;148335.88;;;7.78;60.31
21877;BME280;11103;43.788;23.710;2023-02-03T12:40:13;148353.78;;;7.85;60.68
21877;BME280;11103;43.788;23.710;2023-02-03T12:42:45;148407.38;;;8.06;59.70
21877;BME280;11103;43.788;23.710;2023-02-03T12:45:22;148439.28;;;8.19;59.80
21877;BME280;11103;43.788;23.710;2023-02-03T12:47:55;148448.25;;;8.22;56.11
21877;BME280;11103;43.788;23.710;2023-02-03T12:50:30;148420.16;;;8.11;56.76
21877;BME280;11103;43.788;23.710;2023-02-03T12:53:00;148402.28;;;8.04;58.85
21877;BME280;11103;43.788;23.710;2023-02-03T12:58:04;148438.00;;;8.18;57.84
21877;BME280;11103;43.788;23.710;2023-02-03T13:00:44;148403.53;;;8.05;57.01
21877;BME280;11103;43.788;23.710;2023-02-03T13:05:58;148403.53;;;8.05;55.30
21877;BME280;11103;43.788;23.710;2023-02-03T13:08:36;148416.34;;;8.10;55.50
21877;BME280;11103;43.788;23.710;2023-02-03T13:11:33;148412.47;;;8.08;56.54
21877;BME280;11103;43.788;23.710;2023-02-03T13:16:52;148401.00;;;8.04;55.60
21877;BME280;11103;43.788;23.710;2023-02-03T13:19:23;148448.25;;;8.22;55.97
21877;BME280;11103;43.788;23.710;2023-02-03T13:21:50;148477.69;;;8.34;56.17
21877;BME280;11103;43.788;23.710;2023-02-03T13:24:17;148487.88;;;8.38;55.94
21877;BME280;11103;43.788;23.710;2023-02-03T13:29:49;148432.91;;;8.16;54.34
21877;BME280;11103;43.788;23.710;2023-02-03T13:33:03;148449.53;;;8.23;53.47
21877;BME280;11103;43.788;23.710;2023-02-03T13:44:38;148508.31;;;8.46;52.68
21877;BME280;11103;43.788;23.710;2023-02-03T13:47:05;148528.75;;;8.54;53.13
21877;BME280;11103;43.788;23.710;2023-02-03T13:49:43;148545.38;;;8.61;52.65
21877;BME280;11103;43.788;23.710;2023-02-03T13:54:50;148486.59;;;8.37;52.77
21877;BME280;11103;43.788;23.710;2023-02-03T13:57:21;148445.69;;;8.21;52.44
21877;BME280;11103;43.788;23.710;2023-02-03T13:59:48;148376.72;;;7.94;52.91
21877;BME280;11103;43.788;23.710;2023-02-03T14:17:58;148398.44;;;8.03;53.17
21877;BME280;11103;43.788;23.710;2023-02-03T14:22:56;148397.16;;;8.02;53.16
21877;BME280;11103;43.788;23.710;2023-02-03T14:25:23;148422.72;;;8.12;53.44
21877;BME280;11103;43.788;23.710;2023-02-03T14:28:05;148422.72;;;8.12;52.49
21877;BME280;11103;43.788;23.710;2023-02-03T14:30:32;148416.34;;;8.10;53.41
21877;BME280;11103;43.788;23.710;2023-02-03T14:32:59;148395.88;;;8.02;53.25
21877;BME280;11103;43.788;23.710;2023-02-03T14:35:35;148389.47;;;7.99;53.85
21877;BME280;11103;43.788;23.710;2023-02-03T14:38:05;148346.09;;;7.82;53.43
21877;BME280;11103;43.788;23.710;2023-02-03T14:58:55;148080.66;;;6.77;56.69
21877;BME280;11103;43.788;23.710;2023-02-03T15:01:25;148043.69;;;6.63;57.75
21877;BME280;11103;43.788;23.710;2023-02-03T15:06:41;148042.41;;;6.62;57.86
21877;BME280;11103;43.788;23.710;2023-02-03T15:11:51;148015.63;;;6.51;57.90
21877;BME280;11103;43.788;23.710;2023-02-03T15:14:20;147999.03;;;6.45;58.71
21877;BME280;11103;43.788;23.710;2023-02-03T15:16:59;147999.03;;;6.45;58.71
21877;BME280;11103;43.788;23.710;2023-02-03T15:19:28;147974.81;;;6.35;59.12
21877;BME280;11103;43.788;23.710;2023-02-03T15:21:55;147958.22;;;6.29;59.89
21877;BME280;11103;43.788;23.710;2023-02-03T15:24:21;147959.53;;;6.29;59.37
21877;BME280;11103;43.788;23.710;2023-02-03T15:26:53;147926.38;;;6.16;59.82
21877;BME280;11103;43.788;23.710;2023-02-03T15:29:29;147863.91;;;5.91;60.22
21877;BME280;11103;43.788;23.710;2023-02-03T15:32:01;147909.78;;;6.10;60.37
21877;BME280;11103;43.788;23.710;2023-02-03T15:34:33;147888.13;;;6.01;60.83
21877;BME280;11103;43.788;23.710;2023-02-03T15:37:05;147863.91;;;5.91;60.97
21877;BME280;11103;43.788;23.710;2023-02-03T15:42:17;147815.44;;;5.72;61.39
21877;BME280;11103;43.788;23.710;2023-02-03T15:47:51;147764.44;;;5.52;61.25
21877;BME280;11103;43.788;23.710;2023-02-03T15:52:49;147728.81;;;5.38;61.51
21877;BME280;11103;43.788;23.710;2023-02-03T15:55:28;147709.69;;;5.30;62.04
21877;BME280;11103;43.788;23.710;2023-02-03T15:57:56;147680.41;;;5.19;62.61
21877;BME280;11103;43.788;23.710;2023-02-03T16:00:32;147662.56;;;5.12;62.86